sensor_id;sensor_type;location;lat;lon;timestamp;temperature;humidity
28193;DHT22;15473;50.840;3.396;2022-09-09T00:04:52;15.70;99.90
28193;DHT22;15473;50.840;3.396;2022-09-09T00:10:29;15.50;99.90
28193;DHT22;15473;50.840;3.396;2022-09-09T00:15:59;15.50;99.90
28193;DHT22;15473;50.840;3.396;2022-09-09T00:18:51;15.40;99.90
28193;DHT22;15473;50.840;3.396;2022-09-09T00:21:33;15.30;99.90
28193;DHT22;15473;50.840;3.396;2022-09-09T00:26:51;15.40;99.90
28193;DHT22;15473;50.840;3.396;2022-09-09T00:29:23;15.40;99.90
28193;DHT22;15473;50.840;3.396;2022-09-09T00:32:05;15.40;99.90
28193;DHT22;15473;50.840;3.396;2022-09-09T00:34:28;15.40;99.90
28193;DHT22;15473;50.840;3.396;2022-09-09T00:36:59;15.40;99.90
28193;DHT22;15473;50.840;3.396;2022-09-09T00:48:10;15.30;99.90
28193;DHT22;15473;50.840;3.396;2022-09-09T00:56:37;15.40;99.90
28193;DHT22;15473;50.840;3.396;2022-09-09T00:59:18;15.40;99.90
28193;DHT22;15473;50.840;3.396;2022-09-09T01:01:45;15.30;99.90
28193;DHT22;15473;50.840;3.396;2022-09-09T01:04:17;15.30;99.90
28193;DHT22;15473;50.840;3.396;2022-09-09T01:06:52;15.20;99.90
28193;DHT22;15473;50.840;3.396;2022-09-09T01:09:26;15.20;99.90
28193;DHT22;15473;50.840;3.396;2022-09-09T01:20:14;15.20;99.90
28193;DHT22;15473;50.840;3.396;2022-09-09T01:26:03;15.10;99.90
28193;DHT22;15473;50.840;3.396;2022-09-09T01:28:22;15.10;99.90
28193;DHT22;15473;50.840;3.396;2022-09-09T01:33:44;15.10;99.90
28193;DHT22;15473;50.840;3.396;2022-09-09T01:39:06;15.10;99.90
28193;DHT22;15473;50.840;3.396;2022-09-09T01:41:36;15.10;99.90
28193;DHT22;15473;50.840;3.396;2022-09-09T01:44:07;15.10;99.90
28193;DHT22;15473;50.840;3.396;2022-09-09T01:46:38;15.10;99.90
28193;DHT22;15473;50.840;3.396;2022-09-09T01:49:08;15.10;99.90
28193;DHT22;15473;50.840;3.396;2022-09-09T01:51:40;15.10;99.90
28193;DHT22;15473;50.840;3.396;2022-09-09T01:54:12;15.10;99.90
28193;DHT22;15473;50.840;3.396;2022-09-09T01:59:59;15.10;99.90
28193;DHT22;15473;50.840;3.396;2022-09-09T02:02:36;15.20;99.90
28193;DHT22;15473;50.840;3.396;2022-09-09T02:05:29;15.20;99.90
28193;DHT22;15473;50.840;3.396;2022-09-09T02:08:06;15.20;99.90
28193;DHT22;15473;50.840;3.396;2022-09-09T02:13:12;15.30;99.90
28193;DHT22;15473;50.840;3.396;2022-09-09T02:19:03;15.30;99.90
28193;DHT22;15473;50.840;3.396;2022-09-09T02:21:34;15.30;99.90
28193;DHT22;15473;50.840;3.396;2022-09-09T02:24:07;15.30;99.90
28193;DHT22;15473;50.840;3.396;2022-09-09T02:26:41;15.30;99.90
28193;DHT22;15473;50.840;3.396;2022-09-09T02:29:22;15.30;99.90
28193;DHT22;15473;50.840;3.396;2022-09-09T02:31:49;15.30;99.90
28193;DHT22;15473;50.840;3.396;2022-09-09T02:34:21;15.20;99.90
28193;DHT22;15473;50.840;3.396;2022-09-09T02:39:44;15.20;99.90
28193;DHT22;15473;50.840;3.396;2022-09-09T02:42:14;15.10;99.90
28193;DHT22;15473;50.840;3.396;2022-09-09T02:44:44;15.10;99.90
28193;DHT22;15473;50.840;3.396;2022-09-09T02:53:17;15.00;99.90
28193;DHT22;15473;50.840;3.396;2022-09-09T02:56:14;15.00;99.90
28193;DHT22;15473;50.840;3.396;2022-09-09T02:59:04;15.10;99.90
28193;DHT22;15473;50.840;3.396;2022-09-09T03:01:35;15.10;99.90
28193;DHT22;15473;50.840;3.396;2022-09-09T03:04:05;15.00;99.90
28193;DHT22;15473;50.840;3.396;2022-09-09T03:06:35;15.10;99.90
28193;DHT22;15473;50.840;3.396;2022-09-09T03:09:05;15.10;99.90
28193;DHT22;15473;50.840;3.396;2022-09-09T03:11:37;15.10;99.90
28193;DHT22;15473;50.840;3.396;2022-09-09T03:14:07;15.20;99.90
28193;DHT22;15473;50.840;3.396;2022-09-09T03:16:39;15.30;99.90
28193;DHT22;15473;50.840;3.396;2022-09-09T03:19:10;15.30;99.90
28193;DHT22;15473;50.840;3.396;2022-09-09T03:21:43;15.40;99.90
28193;DHT22;15473;50.840;3.396;2022-09-09T03:24:13;15.40;99.90
28193;DHT22;15473;50.840;3.396;2022-09-09T03:26:44;15.40;99.90
28193;DHT22;15473;50.840;3.396;2022-09-09T03:29:14;15.40;99.90
28193;DHT22;15473;50.840;3.396;2022-09-09T03:31:49;15.50;99.90
28193;DHT22;15473;50.840;3.396;2022-09-09T03:34:20;15.50;99.90
28193;DHT22;15473;50.840;3.396;2022-09-09T03:36:50;15.50;99.90
28193;DHT22;15473;50.840;3.396;2022-09-09T03:39:20;15.50;99.90
28193;DHT22;15473;50.840;3.396;2022-09-09T03:41:50;15.50;99.90
28193;DHT22;15473;50.840;3.396;2022-09-09T03:44:20;15.50;99.90
28193;DHT22;15473;50.840;3.396;2022-09-09T03:46:50;15.50;99.90
28193;DHT22;15473;50.840;3.396;2022-09-09T03:49:20;15.50;99.90
28193;DHT22;15473;50.840;3.396;2022-09-09T03:51:57;15.60;99.90
28193;DHT22;15473;50.840;3.396;2022-09-09T03:54:28;15.50;99.90
28193;DHT22;15473;50.840;3.396;2022-09-09T03:56:58;15.60;99.90
28193;DHT22;15473;50.840;3.396;2022-09-09T03:59:28;15.60;99.90
28193;DHT22;15473;50.840;3.396;2022-09-09T04:01:58;15.60;99.90
28193;DHT22;15473;50.840;3.396;2022-09-09T04:04:28;15.60;99.90
28193;DHT22;15473;50.840;3.396;2022-09-09T04:06:58;15.60;99.90
28193;DHT22;15473;50.840;3.396;2022-09-09T04:09:28;15.60;99.90
28193;DHT22;15473;50.840;3.396;2022-09-09T04:11:58;15.60;99.90
28193;DHT22;15473;50.840;3.396;2022-09-09T04:14:28;15.60;99.90
28193;DHT22;15473;50.840;3.396;2022-09-09T04:16:58;15.60;99.90
28193;DHT22;15473;50.840;3.396;2022-09-09T04:19:28;15.70;99.90
28193;DHT22;15473;50.840;3.396;2022-09-09T04:21:58;15.60;99.90
28193;DHT22;15473;50.840;3.396;2022-09-09T04:24:28;15.60;99.90
28193;DHT22;15473;50.840;3.396;2022-09-09T04:26:58;15.60;99.90
28193;DHT22;15473;50.840;3.396;2022-09-09T04:29:28;15.60;99.90
28193;DHT22;15473;50.840;3.396;2022-09-09T04:31:58;15.50;99.90
28193;DHT22;15473;50.840;3.396;2022-09-09T04:34:28;15.50;99.90
28193;DHT22;15473;50.840;3.396;2022-09-09T04:36:59;15.50;99.90
28193;DHT22;15473;50.840;3.396;2022-09-09T04:39:30;15.50;99.90
28193;DHT22;15473;50.840;3.396;2022-09-09T04:42:00;15.50;99.90
28193;DHT22;15473;50.840;3.396;2022-09-09T04:44:30;15.50;99.90
28193;DHT22;15473;50.840;3.396;2022-09-09T04:47:00;15.60;99.90
28193;DHT22;15473;50.840;3.396;2022-09-09T04:49:30;15.60;99.90
28193;DHT22;15473;50.840;3.396;2022-09-09T04:52:01;15.70;99.90
28193;DHT22;15473;50.840;3.396;2022-09-09T04:54:31;15.70;99.90
28193;DHT22;15473;50.840;3.396;2022-09-09T04:57:01;15.70;99.90
28193;DHT22;15473;50.840;3.396;2022-09-09T04:59:31;15.70;99.90
28193;DHT22;15473;50.840;3.396;2022-09-09T05:02:01;15.70;99.90
28193;DHT22;15473;50.840;3.396;2022-09-09T05:04:32;15.80;99.90
28193;DHT22;15473;50.840;3.396;2022-09-09T05:07:02;15.70;99.90
28193;DHT22;15473;50.840;3.396;2022-09-09T05:09:32;15.70;99.90
28193;DHT22;15473;50.840;3.396;2022-09-09T05:12:02;15.80;99.90
28193;DHT22;15473;50.840;3.396;2022-09-09T05:14:33;15.80;99.90
28193;DHT22;15473;50.840;3.396;2022-09-09T05:17:04;15.80;99.90
28193;DHT22;15473;50.840;3.396;2022-09-09T05:19:34;15.80;99.90
28193;DHT22;15473;50.840;3.396;2022-09-09T05:22:11;15.80;99.90
28193;DHT22;15473;50.840;3.396;2022-09-09T05:24:41;15.70;99.90
28193;DHT22;15473;50.840;3.396;2022-09-09T05:27:11;15.70;99.90
28193;DHT22;15473;50.840;3.396;2022-09-09T05:29:41;15.80;99.90
28193;DHT22;15473;50.840;3.396;2022-09-09T05:32:13;15.80;99.90
28193;DHT22;15473;50.840;3.396;2022-09-09T05:34:45;15.90;99.90
28193;DHT22;15473;50.840;3.396;2022-09-09T05:37:16;15.80;99.90
28193;DHT22;15473;50.840;3.396;2022-09-09T05:39:47;15.80;99.90
28193;DHT22;15473;50.840;3.396;2022-09-09T05:42:19;15.80;99.90
28193;DHT22;15473;50.840;3.396;2022-09-09T05:44:55;15.80;99.90
28193;DHT22;15473;50.840;3.396;2022-09-09T05:47:27;15.80;99.90
28193;DHT22;15473;50.840;3.396;2022-09-09T05:49:57;15.80;99.90
28193;DHT22;15473;50.840;3.396;2022-09-09T05:52:28;15.70;99.90
28193;DHT22;15473;50.840;3.396;2022-09-09T05:54:58;15.70;99.90
28193;DHT22;15473;50.840;3.396;2022-09-09T05:57:34;15.70;99.90
28193;DHT22;15473;50.840;3.396;2022-09-09T06:02:59;15.80;99.90
28193;DHT22;15473;50.840;3.396;2022-09-09T06:05:29;15.80;99.90
28193;DHT22;15473;50.840;3.396;2022-09-09T06:07:59;15.90;99.90
28193;DHT22;15473;50.840;3.396;2022-09-09T06:10:29;15.90;99.90
28193;DHT22;15473;50.840;3.396;2022-09-09T06:13:01;16.00;99.90
28193;DHT22;15473;50.840;3.396;2022-09-09T06:15:31;16.20;99.90
28193;DHT22;15473;50.840;3.396;2022-09-09T06:18:01;16.20;99.90
28193;DHT22;15473;50.840;3.396;2022-09-09T06:20:31;16.20;99.90
28193;DHT22;15473;50.840;3.396;2022-09-09T06:23:01;16.20;99.90
28193;DHT22;15473;50.840;3.396;2022-09-09T06:25:31;16.20;99.90
28193;DHT22;15473;50.840;3.396;2022-09-09T06:28:03;16.10;99.90
28193;DHT22;15473;50.840;3.396;2022-09-09T06:30:33;16.10;99.90
28193;DHT22;15473;50.840;3.396;2022-09-09T06:33:03;16.10;99.90
28193;DHT22;15473;50.840;3.396;2022-09-09T06:35:33;16.10;99.90
28193;DHT22;15473;50.840;3.396;2022-09-09T06:38:03;16.10;99.90
28193;DHT22;15473;50.840;3.396;2022-09-09T06:40:34;16.20;99.90
28193;DHT22;15473;50.840;3.396;2022-09-09T06:43:06;16.20;99.90
28193;DHT22;15473;50.840;3.396;2022-09-09T06:45:36;16.20;99.90
28193;DHT22;15473;50.840;3.396;2022-09-09T06:48:06;16.30;99.90
28193;DHT22;15473;50.840;3.396;2022-09-09T06:50:37;16.40;99.90
28193;DHT22;15473;50.840;3.396;2022-09-09T06:53:07;16.50;99.90
28193;DHT22;15473;50.840;3.396;2022-09-09T06:55:38;16.50;99.90
28193;DHT22;15473;50.840;3.396;2022-09-09T06:58:15;16.50;99.90
28193;DHT22;15473;50.840;3.396;2022-09-09T07:00:46;16.50;99.90
28193;DHT22;15473;50.840;3.396;2022-09-09T07:03:16;16.50;99.90
28193;DHT22;15473;50.840;3.396;2022-09-09T07:05:54;16.50;99.90
28193;DHT22;15473;50.840;3.396;2022-09-09T07:08:25;16.50;99.90
28193;DHT22;15473;50.840;3.396;2022-09-09T07:11:03;16.60;99.90
28193;DHT22;15473;50.840;3.396;2022-09-09T07:13:37;16.60;99.90
28193;DHT22;15473;50.840;3.396;2022-09-09T07:16:12;16.50;99.90
28193;DHT22;15473;50.840;3.396;2022-09-09T07:18:43;16.40;99.90
28193;DHT22;15473;50.840;3.396;2022-09-09T07:21:14;16.40;99.90
28193;DHT22;15473;50.840;3.396;2022-09-09T07:23:45;16.30;99.90
28193;DHT22;15473;50.840;3.396;2022-09-09T07:26:17;16.20;99.90
28193;DHT22;15473;50.840;3.396;2022-09-09T07:28:51;16.10;99.90
28193;DHT22;15473;50.840;3.396;2022-09-09T07:31:29;16.00;99.90
28193;DHT22;15473;50.840;3.396;2022-09-09T07:34:02;15.90;99.90
28193;DHT22;15473;50.840;3.396;2022-09-09T07:36:37;15.90;99.90
28193;DHT22;15473;50.840;3.396;2022-09-09T07:39:27;15.90;99.90
28193;DHT22;15473;50.840;3.396;2022-09-09T07:41:57;15.90;99.90
28193;DHT22;15473;50.840;3.396;2022-09-09T07:44:28;16.00;99.90
28193;DHT22;15473;50.840;3.396;2022-09-09T07:46:59;16.00;99.90
28193;DHT22;15473;50.840;3.396;2022-09-09T07:49:29;16.00;99.90
28193;DHT22;15473;50.840;3.396;2022-09-09T07:51:59;16.00;99.90
28193;DHT22;15473;50.840;3.396;2022-09-09T07:54:29;16.10;99.90
28193;DHT22;15473;50.840;3.396;2022-09-09T07:57:01;16.10;99.90
28193;DHT22;15473;50.840;3.396;2022-09-09T07:59:32;16.10;99.90
28193;DHT22;15473;50.840;3.396;2022-09-09T08:02:02;16.20;99.90
28193;DHT22;15473;50.840;3.396;2022-09-09T08:04:33;16.20;99.90
28193;DHT22;15473;50.840;3.396;2022-09-09T08:07:03;16.20;99.90
28193;DHT22;15473;50.840;3.396;2022-09-09T08:09:34;16.20;99.90
28193;DHT22;15473;50.840;3.396;2022-09-09T08:12:04;16.30;99.90
28193;DHT22;15473;50.840;3.396;2022-09-09T08:14:35;16.40;99.90
28193;DHT22;15473;50.840;3.396;2022-09-09T08:17:05;16.50;99.90
28193;DHT22;15473;50.840;3.396;2022-09-09T08:19:35;16.50;99.90
28193;DHT22;15473;50.840;3.396;2022-09-09T08:24:56;16.50;99.90
28193;DHT22;15473;50.840;3.396;2022-09-09T08:27:27;16.50;99.90
28193;DHT22;15473;50.840;3.396;2022-09-09T08:29:57;16.60;99.90
28193;DHT22;15473;50.840;3.396;2022-09-09T08:32:27;16.60;99.90
28193;DHT22;15473;50.840;3.396;2022-09-09T08:34:58;16.60;99.90
28193;DHT22;15473;50.840;3.396;2022-09-09T08:37:28;16.60;99.90
28193;DHT22;15473;50.840;3.396;2022-09-09T08:39:58;16.60;99.90
28193;DHT22;15473;50.840;3.396;2022-09-09T08:42:47;16.60;99.90
28193;DHT22;15473;50.840;3.396;2022-09-09T08:45:33;16.70;99.90
28193;DHT22;15473;50.840;3.396;2022-09-09T08:48:36;16.70;99.90
28193;DHT22;15473;50.840;3.396;2022-09-09T08:51:01;16.80;99.90
28193;DHT22;15473;50.840;3.396;2022-09-09T08:53:41;16.90;99.90
28193;DHT22;15473;50.840;3.396;2022-09-09T08:59:01;17.40;99.90
28193;DHT22;15473;50.840;3.396;2022-09-09T09:02:07;17.80;99.90
28193;DHT22;15473;50.840;3.396;2022-09-09T09:10:09;18.40;99.90
28193;DHT22;15473;50.840;3.396;2022-09-09T09:12:39;18.40;99.90
28193;DHT22;15473;50.840;3.396;2022-09-09T09:15:16;18.40;99.90
28193;DHT22;15473;50.840;3.396;2022-09-09T09:17:46;18.50;99.90
28193;DHT22;15473;50.840;3.396;2022-09-09T09:20:22;18.70;99.90
28193;DHT22;15473;50.840;3.396;2022-09-09T09:22:55;18.60;99.90
28193;DHT22;15473;50.840;3.396;2022-09-09T09:25:34;18.50;99.90
28193;DHT22;15473;50.840;3.396;2022-09-09T09:31:07;18.40;99.90
28193;DHT22;15473;50.840;3.396;2022-09-09T09:33:49;18.30;99.90
28193;DHT22;15473;50.840;3.396;2022-09-09T09:36:21;18.40;99.90
28193;DHT22;15473;50.840;3.396;2022-09-09T09:38:57;18.30;99.90
28193;DHT22;15473;50.840;3.396;2022-09-09T09:41:40;18.40;99.90
28193;DHT22;15473;50.840;3.396;2022-09-09T09:44:27;18.50;99.90
28193;DHT22;15473;50.840;3.396;2022-09-09T09:47:10;18.50;99.90
28193;DHT22;15473;50.840;3.396;2022-09-09T09:49:50;18.50;99.90
28193;DHT22;15473;50.840;3.396;2022-09-09T09:52:13;18.60;99.90
28193;DHT22;15473;50.840;3.396;2022-09-09T09:54:44;18.60;99.90
28193;DHT22;15473;50.840;3.396;2022-09-09T09:57:16;18.60;99.90
28193;DHT22;15473;50.840;3.396;2022-09-09T09:59:48;18.70;99.90
28193;DHT22;15473;50.840;3.396;2022-09-09T10:02:23;18.70;99.90
28193;DHT22;15473;50.840;3.396;2022-09-09T10:08:13;18.70;99.90
28193;DHT22;15473;50.840;3.396;2022-09-09T10:16:15;18.80;99.90
28193;DHT22;15473;50.840;3.396;2022-09-09T10:19:09;19.10;99.90
28193;DHT22;15473;50.840;3.396;2022-09-09T10:21:43;19.40;99.90
28193;DHT22;15473;50.840;3.396;2022-09-09T10:30:17;19.30;99.90
28193;DHT22;15473;50.840;3.396;2022-09-09T10:33:12;19.30;99.90
28193;DHT22;15473;50.840;3.396;2022-09-09T10:36:04;19.20;99.90
28193;DHT22;15473;50.840;3.396;2022-09-09T10:38:48;19.20;99.90
28193;DHT22;15473;50.840;3.396;2022-09-09T10:44:23;19.20;99.90
28193;DHT22;15473;50.840;3.396;2022-09-09T10:56:11;19.80;99.90
28193;DHT22;15473;50.840;3.396;2022-09-09T10:58:49;19.90;99.90
28193;DHT22;15473;50.840;3.396;2022-09-09T11:03:59;20.30;99.90
28193;DHT22;15473;50.840;3.396;2022-09-09T11:06:36;20.20;99.90
28193;DHT22;15473;50.840;3.396;2022-09-09T11:09:02;19.90;99.90
28193;DHT22;15473;50.840;3.396;2022-09-09T11:11:44;19.80;99.90
28193;DHT22;15473;50.840;3.396;2022-09-09T11:14:26;19.90;99.90
28193;DHT22;15473;50.840;3.396;2022-09-09T11:17:12;19.70;99.90
28193;DHT22;15473;50.840;3.396;2022-09-09T11:19:43;19.80;99.90
28193;DHT22;15473;50.840;3.396;2022-09-09T11:25:07;20.00;99.90
28193;DHT22;15473;50.840;3.396;2022-09-09T11:27:55;20.30;99.90
28193;DHT22;15473;50.840;3.396;2022-09-09T11:40:08;20.60;99.90
28193;DHT22;15473;50.840;3.396;2022-09-09T11:42:22;20.50;99.90
28193;DHT22;15473;50.840;3.396;2022-09-09T11:44:52;20.40;99.90
28193;DHT22;15473;50.840;3.396;2022-09-09T11:47:28;20.30;99.90
28193;DHT22;15473;50.840;3.396;2022-09-09T11:52:48;20.20;99.90
28193;DHT22;15473;50.840;3.396;2022-09-09T11:55:30;20.30;99.90
28193;DHT22;15473;50.840;3.396;2022-09-09T11:58:04;20.20;99.90
28193;DHT22;15473;50.840;3.396;2022-09-09T12:00:48;20.30;99.90
28193;DHT22;15473;50.840;3.396;2022-09-09T12:03:40;20.30;99.90
28193;DHT22;15473;50.840;3.396;2022-09-09T12:06:41;20.30;99.90
28193;DHT22;15473;50.840;3.396;2022-09-09T12:09:17;20.40;99.90
28193;DHT22;15473;50.840;3.396;2022-09-09T12:11:44;20.40;99.90
28193;DHT22;15473;50.840;3.396;2022-09-09T12:17:17;20.30;99.90
28193;DHT22;15473;50.840;3.396;2022-09-09T12:19:59;20.40;99.90
28193;DHT22;15473;50.840;3.396;2022-09-09T12:25:08;20.40;99.90
28193;DHT22;15473;50.840;3.396;2022-09-09T12:30:19;20.60;99.90
28193;DHT22;15473;50.840;3.396;2022-09-09T12:33:06;20.70;99.90
28193;DHT22;15473;50.840;3.396;2022-09-09T12:35:31;20.80;99.90
28193;DHT22;15473;50.840;3.396;2022-09-09T12:38:02;21.10;99.90
28193;DHT22;15473;50.840;3.396;2022-09-09T12:40:34;21.30;99.90
28193;DHT22;15473;50.840;3.396;2022-09-09T12:43:19;21.40;99.90
28193;DHT22;15473;50.840;3.396;2022-09-09T12:45:53;21.50;99.90
28193;DHT22;15473;50.840;3.396;2022-09-09T12:48:34;21.50;99.90
28193;DHT22;15473;50.840;3.396;2022-09-09T12:51:06;21.40;99.90
28193;DHT22;15473;50.840;3.396;2022-09-09T12:53:39;21.50;99.90
28193;DHT22;15473;50.840;3.396;2022-09-09T12:56:18;21.60;99.90
28193;DHT22;15473;50.840;3.396;2022-09-09T12:58:45;21.70;99.90
28193;DHT22;15473;50.840;3.396;2022-09-09T13:01:34;21.60;99.90
28193;DHT22;15473;50.840;3.396;2022-09-09T13:04:18;21.40;99.90
28193;DHT22;15473;50.840;3.396;2022-09-09T13:06:37;21.30;99.90
28193;DHT22;15473;50.840;3.396;2022-09-09T13:09:09;21.30;99.90
28193;DHT22;15473;50.840;3.396;2022-09-09T13:11:44;21.50;99.90
28193;DHT22;15473;50.840;3.396;2022-09-09T13:14:26;21.60;99.90
28193;DHT22;15473;50.840;3.396;2022-09-09T13:16:56;21.70;99.90
28193;DHT22;15473;50.840;3.396;2022-09-09T13:19:34;21.80;99.90
28193;DHT22;15473;50.840;3.396;2022-09-09T13:22:10;22.00;99.90
28193;DHT22;15473;50.840;3.396;2022-09-09T13:24:33;22.00;99.90
28193;DHT22;15473;50.840;3.396;2022-09-09T13:27:21;22.10;99.90
28193;DHT22;15473;50.840;3.396;2022-09-09T13:29:37;22.30;99.90
28193;DHT22;15473;50.840;3.396;2022-09-09T13:32:18;22.40;99.90
28193;DHT22;15473;50.840;3.396;2022-09-09T13:34:59;22.60;99.90
28193;DHT22;15473;50.840;3.396;2022-09-09T13:37:36;22.60;99.90
28193;DHT22;15473;50.840;3.396;2022-09-09T13:40:17;22.60;99.90
28193;DHT22;15473;50.840;3.396;2022-09-09T13:42:55;22.60;99.90
28193;DHT22;15473;50.840;3.396;2022-09-09T13:45:25;22.50;99.90
28193;DHT22;15473;50.840;3.396;2022-09-09T13:47:56;22.30;99.90
28193;DHT22;15473;50.840;3.396;2022-09-09T13:50:28;22.00;99.90
28193;DHT22;15473;50.840;3.396;2022-09-09T13:52:59;21.80;99.90
28193;DHT22;15473;50.840;3.396;2022-09-09T13:55:30;21.60;99.90
28193;DHT22;15473;50.840;3.396;2022-09-09T13:58:03;21.30;99.90
28193;DHT22;15473;50.840;3.396;2022-09-09T14:00:34;21.40;99.90
28193;DHT22;15473;50.840;3.396;2022-09-09T14:03:05;21.70;99.90
28193;DHT22;15473;50.840;3.396;2022-09-09T14:05:36;21.80;99.90
28193;DHT22;15473;50.840;3.396;2022-09-09T14:08:07;21.90;99.90
28193;DHT22;15473;50.840;3.396;2022-09-09T14:10:37;22.00;99.90
28193;DHT22;15473;50.840;3.396;2022-09-09T14:13:07;22.40;99.90
28193;DHT22;15473;50.840;3.396;2022-09-09T14:15:37;22.50;99.90
28193;DHT22;15473;50.840;3.396;2022-09-09T14:18:10;22.50;99.90
28193;DHT22;15473;50.840;3.396;2022-09-09T14:20:41;22.40;99.90
28193;DHT22;15473;50.840;3.396;2022-09-09T14:23:12;22.00;99.90
28193;DHT22;15473;50.840;3.396;2022-09-09T14:25:43;21.80;99.90
28193;DHT22;15473;50.840;3.396;2022-09-09T14:28:13;21.60;99.90
28193;DHT22;15473;50.840;3.396;2022-09-09T14:30:44;21.50;99.90
28193;DHT22;15473;50.840;3.396;2022-09-09T14:33:15;21.40;99.90
28193;DHT22;15473;50.840;3.396;2022-09-09T14:35:46;21.30;99.90
28193;DHT22;15473;50.840;3.396;2022-09-09T14:38:16;21.20;99.90
28193;DHT22;15473;50.840;3.396;2022-09-09T14:40:46;21.10;99.90
28193;DHT22;15473;50.840;3.396;2022-09-09T14:43:16;21.00;99.90
28193;DHT22;15473;50.840;3.396;2022-09-09T14:45:46;21.00;99.90
28193;DHT22;15473;50.840;3.396;2022-09-09T14:48:17;21.00;99.90
28193;DHT22;15473;50.840;3.396;2022-09-09T14:50:47;21.00;99.90
28193;DHT22;15473;50.840;3.396;2022-09-09T14:53:18;20.90;99.90
28193;DHT22;15473;50.840;3.396;2022-09-09T14:55:48;20.70;99.90
28193;DHT22;15473;50.840;3.396;2022-09-09T14:58:19;20.50;99.90
28193;DHT22;15473;50.840;3.396;2022-09-09T15:00:49;20.40;99.90
28193;DHT22;15473;50.840;3.396;2022-09-09T15:03:19;20.40;99.90
28193;DHT22;15473;50.840;3.396;2022-09-09T15:05:50;20.40;99.90
28193;DHT22;15473;50.840;3.396;2022-09-09T15:08:20;20.40;99.90
28193;DHT22;15473;50.840;3.396;2022-09-09T15:11:04;20.40;99.90
28193;DHT22;15473;50.840;3.396;2022-09-09T15:13:36;20.40;99.90
28193;DHT22;15473;50.840;3.396;2022-09-09T15:16:08;20.20;99.90
28193;DHT22;15473;50.840;3.396;2022-09-09T15:18:39;20.00;99.90
28193;DHT22;15473;50.840;3.396;2022-09-09T15:21:14;19.70;99.90
28193;DHT22;15473;50.840;3.396;2022-09-09T15:23:45;19.40;99.90
28193;DHT22;15473;50.840;3.396;2022-09-09T15:26:16;19.20;99.90
28193;DHT22;15473;50.840;3.396;2022-09-09T15:29:06;18.90;99.90
28193;DHT22;15473;50.840;3.396;2022-09-09T15:31:37;18.90;99.90
28193;DHT22;15473;50.840;3.396;2022-09-09T15:34:08;19.10;99.90
28193;DHT22;15473;50.840;3.396;2022-09-09T15:36:40;19.30;99.90
28193;DHT22;15473;50.840;3.396;2022-09-09T15:39:12;19.50;99.90
28193;DHT22;15473;50.840;3.396;2022-09-09T15:41:45;19.60;99.90
28193;DHT22;15473;50.840;3.396;2022-09-09T15:44:16;19.80;99.90
28193;DHT22;15473;50.840;3.396;2022-09-09T15:46:52;20.00;99.90
28193;DHT22;15473;50.840;3.396;2022-09-09T15:49:24;20.30;99.90
28193;DHT22;15473;50.840;3.396;2022-09-09T15:51:59;20.70;99.90
28193;DHT22;15473;50.840;3.396;2022-09-09T15:54:33;20.80;99.90
28193;DHT22;15473;50.840;3.396;2022-09-09T15:57:05;20.70;99.90
28193;DHT22;15473;50.840;3.396;2022-09-09T15:59:36;20.60;99.90
28193;DHT22;15473;50.840;3.396;2022-09-09T16:02:06;20.40;99.90
28193;DHT22;15473;50.840;3.396;2022-09-09T16:04:36;20.30;99.90
28193;DHT22;15473;50.840;3.396;2022-09-09T16:07:06;20.00;99.90
28193;DHT22;15473;50.840;3.396;2022-09-09T16:09:36;19.70;99.90
28193;DHT22;15473;50.840;3.396;2022-09-09T16:12:06;19.50;99.90
28193;DHT22;15473;50.840;3.396;2022-09-09T16:14:38;19.50;99.90
28193;DHT22;15473;50.840;3.396;2022-09-09T16:17:09;19.60;99.90
28193;DHT22;15473;50.840;3.396;2022-09-09T16:19:40;19.70;99.90
28193;DHT22;15473;50.840;3.396;2022-09-09T16:22:10;19.70;99.90
28193;DHT22;15473;50.840;3.396;2022-09-09T16:24:42;19.70;99.90
28193;DHT22;15473;50.840;3.396;2022-09-09T16:27:14;19.60;99.90
28193;DHT22;15473;50.840;3.396;2022-09-09T16:29:44;19.50;99.90
28193;DHT22;15473;50.840;3.396;2022-09-09T16:32:14;19.50;99.90
28193;DHT22;15473;50.840;3.396;2022-09-09T16:34:44;19.30;99.90
28193;DHT22;15473;50.840;3.396;2022-09-09T16:37:14;19.30;99.90
28193;DHT22;15473;50.840;3.396;2022-09-09T16:39:44;19.40;99.90
28193;DHT22;15473;50.840;3.396;2022-09-09T16:42:15;19.30;99.90
28193;DHT22;15473;50.840;3.396;2022-09-09T16:44:46;19.30;99.90
28193;DHT22;15473;50.840;3.396;2022-09-09T16:47:18;19.20;99.90
28193;DHT22;15473;50.840;3.396;2022-09-09T16:49:48;19.20;99.90
28193;DHT22;15473;50.840;3.396;2022-09-09T16:52:18;19.10;99.90
28193;DHT22;15473;50.840;3.396;2022-09-09T16:54:48;19.20;99.90
28193;DHT22;15473;50.840;3.396;2022-09-09T16:57:18;19.10;99.90
28193;DHT22;15473;50.840;3.396;2022-09-09T16:59:48;19.00;99.90
28193;DHT22;15473;50.840;3.396;2022-09-09T17:02:19;18.90;99.90
28193;DHT22;15473;50.840;3.396;2022-09-09T17:04:49;18.80;99.90
28193;DHT22;15473;50.840;3.396;2022-09-09T17:07:19;18.70;99.90
28193;DHT22;15473;50.840;3.396;2022-09-09T17:09:49;18.50;99.90
28193;DHT22;15473;50.840;3.396;2022-09-09T17:12:19;18.40;99.90
28193;DHT22;15473;50.840;3.396;2022-09-09T17:14:50;18.40;99.90
28193;DHT22;15473;50.840;3.396;2022-09-09T17:17:20;18.40;99.90
28193;DHT22;15473;50.840;3.396;2022-09-09T17:19:50;18.40;99.90
28193;DHT22;15473;50.840;3.396;2022-09-09T17:22:20;18.50;99.90
28193;DHT22;15473;50.840;3.396;2022-09-09T17:24:52;18.50;99.90
28193;DHT22;15473;50.840;3.396;2022-09-09T17:27:22;18.60;99.90
28193;DHT22;15473;50.840;3.396;2022-09-09T17:29:52;18.60;99.90
28193;DHT22;15473;50.840;3.396;2022-09-09T17:32:22;18.60;99.90
28193;DHT22;15473;50.840;3.396;2022-09-09T17:34:52;18.60;99.90
28193;DHT22;15473;50.840;3.396;2022-09-09T17:37:22;18.50;99.90
28193;DHT22;15473;50.840;3.396;2022-09-09T17:39:52;18.40;99.90
28193;DHT22;15473;50.840;3.396;2022-09-09T17:42:28;18.40;99.90
28193;DHT22;15473;50.840;3.396;2022-09-09T17:45:00;18.40;99.90
28193;DHT22;15473;50.840;3.396;2022-09-09T17:47:30;18.30;99.90
28193;DHT22;15473;50.840;3.396;2022-09-09T17:50:00;18.30;99.90
28193;DHT22;15473;50.840;3.396;2022-09-09T17:52:30;18.30;99.90
28193;DHT22;15473;50.840;3.396;2022-09-09T17:55:00;18.20;99.90
28193;DHT22;15473;50.840;3.396;2022-09-09T17:57:30;18.20;99.90
28193;DHT22;15473;50.840;3.396;2022-09-09T18:00:00;18.10;99.90
28193;DHT22;15473;50.840;3.396;2022-09-09T18:02:30;18.10;99.90
28193;DHT22;15473;50.840;3.396;2022-09-09T18:05:01;18.10;99.90
28193;DHT22;15473;50.840;3.396;2022-09-09T18:07:31;18.00;99.90
28193;DHT22;15473;50.840;3.396;2022-09-09T18:10:04;18.00;99.90
28193;DHT22;15473;50.840;3.396;2022-09-09T18:12:34;18.00;99.90
28193;DHT22;15473;50.840;3.396;2022-09-09T18:15:23;17.90;99.90
28193;DHT22;15473;50.840;3.396;2022-09-09T18:17:53;17.90;99.90